Dousman, WI

11:52 AM CDT on September 20, 2014 (GMT -0500)
Spring Lake South Shore | Change Station
CLOSE
Current Station
Personal Weather Station
Location: Mukwonago, WI
Elevation: 992 ft
Nearby Weather Stations

Elev 992 ft 42.91 °N, 88.37 °W | Updated 5 seconds ago

Partly Cloudy
Partly Cloudy
74.3 °F
Feels Like 76 °F
N
3.0
Wind Variable Wind from South
Gusts 9.0 mph

Today
High -- | Low -- °F
--% Chance of Precip.
Yesterday
High -- | Low -- °F
Precip. -- in
6:39 AM 6:54 PM
Waning Crescent, 11% visible
Pressure 29.80 in
Visibility 10.0 miles
Clouds Scattered Clouds 3100 ft
Scattered Clouds 4100 ft
Heat Index 76 °F
Dew Point 65 °F
Humidity 73%
Rainfall 0.05 in
Snow Depth Not available.
UV 5 out of 12
Pollen 1.00 out of 12
Air Quality Not available.
Flu Activity Not available.
METAR KUES 201645Z 23014KT 10SM SCT031 SCT041 23/16 A2980

More Conditions Fewer Conditions

Pressure 29.80 in
Visibility 10.0 miles
Clouds Scattered Clouds 3100 ft
Scattered Clouds 4100 ft
Heat Index 76 °F
Dew Point 65 °F
Humidity 73%
Rainfall 0.05 in
Snow Depth Not available.
UV 5 out of 12
Pollen 1.00 out of 12
Air Quality Not available.
Flu Activity Not available.
METAR KUES 201645Z 23014KT 10SM SCT031 SCT041 23/16 A2980

More Conditions Fewer Conditions

10-Day Weather Forecast

Almanac

Astronomy

Sep. 20, 2014 Rise Set
Actual Time 6:39 AM CDT 6:54 PM CDT
Civil Twilight 6:10 AM CDT 7:23 PM CDT
Nautical Twilight 5:37 AM CDT 7:56 PM CDT
Astronomical Twilight 5:03 AM CDT 8:30 PM CDT
Moon 3:13 AM CDT 5:01 PM CDT
Length of Visible Light 13h 12m
Length of Day
12h 15m
Tomorrow will be 2m 54s shorter.
Waning Crescent, 11% of the Moon is Illuminated
Today
Waning Crescent
Sep 24
New
Oct 1
First Quarter
Oct 8
Full
Oct 15
Last Quarter

Today's Extremes

State Highs State Lows

Community

WunderPhotos

Upload Photos

1,754,896 photos uploaded!

Nearby

Snow Depth

Station Depth Elevation
No new snow has been reported.

Earthquake Activity

City Distance Mag. Time & Date
No recent earthquake activity has been reported nearby.
Minimum magnitude displayed is 2.5.

Coastal Water Temperatures

Place Temperature
No Stations Reporting

Nearby Weather Stations